Redings Mill, Missouri
Current Conditions -  °F | °C
As of 4:53 AM on Thursday 18 Dec 2014 (Local Time) from KJLN Reporting Station
Light Rain Light Rain  
Wind Chill: -1°   Ceiling: 300
Heat Index:   Visibility: 3mi
Dew Point:   Wind: 5mph
Humidity: 96%   Direction: 60°ENE
Pressure: 30.16"   Gusts: NA
Location:  37.1074°N, 94.5218°W
Report Text: KJLN 181053Z AUTO 06004KT 3SM -RA BR OVC003 01/01 A3016 RMK AO2 RAE0954B30UPB0954E0956B24E30B48E50 SLP221 P0000 T00110006
Loading
Personal Weather Stations






























Interactive Weather Map New forecast layout! Learn more

10-Day Weather Forecast

Advertisements
Track Severe Weather on mobile